createdAt,value
2022-12-05T00:03:34.055Z,28.57
2022-12-05T00:13:37.148Z,25.13
2022-12-05T00:23:42.070Z,25.53
2022-12-05T00:33:45.865Z,25.57
2022-12-05T00:43:50.515Z,24.87
2022-12-05T00:53:53.784Z,24.20
2022-12-05T01:04:00.035Z,22.87
2022-12-05T01:14:03.317Z,25.00
2022-12-05T01:24:08.563Z,20.40
2022-12-05T01:34:14.654Z,21.03
2022-12-05T01:44:54.851Z,19.63
2022-12-05T01:55:03.519Z,20.53
2022-12-05T02:05:10.168Z,22.17
2022-12-05T02:15:37.393Z,21.90
2022-12-05T02:26:08.810Z,18.37
2022-12-05T02:36:19.011Z,14.77
2022-12-05T02:46:24.479Z,16.67
2022-12-05T02:56:30.833Z,16.60
2022-12-05T03:06:37.291Z,14.17
2022-12-05T03:16:45.465Z,12.97
2022-12-05T03:26:56.430Z,14.13
2022-12-05T03:37:07.222Z,16.00
2022-12-05T03:47:18.425Z,16.63
2022-12-05T03:57:25.417Z,19.27
2022-12-05T04:07:33.113Z,18.90
2022-12-05T04:17:46.947Z,15.60
2022-12-05T04:27:58.418Z,15.57
2022-12-05T04:38:06.275Z,14.70
2022-12-05T04:48:13.669Z,15.67
2022-12-05T04:58:21.337Z,12.53
2022-12-05T05:08:27.312Z,12.70
2022-12-05T05:18:31.870Z,12.90
2022-12-05T05:28:34.851Z,15.60
2022-12-05T05:38:39.926Z,16.30
2022-12-05T05:48:43.235Z,13.23
2022-12-05T05:58:48.152Z,13.50
2022-12-05T06:08:51.209Z,12.73
2022-12-05T06:18:55.742Z,14.97
2022-12-05T06:28:58.741Z,15.20
2022-12-05T06:39:03.144Z,15.80
2022-12-05T06:49:06.605Z,15.63
2022-12-05T06:59:11.074Z,16.83
2022-12-05T07:09:14.320Z,16.27
2022-12-05T07:19:18.667Z,15.17
2022-12-05T07:29:21.711Z,15.83
2022-12-05T07:39:26.130Z,14.97
2022-12-05T07:49:29.283Z,17.80
2022-12-05T07:59:33.758Z,22.27
2022-12-05T08:09:36.739Z,18.07
2022-12-05T08:19:41.205Z,17.03
2022-12-05T08:29:44.639Z,16.33
2022-12-05T08:39:49.609Z,17.40
2022-12-05T08:49:52.627Z,15.50
2022-12-05T08:59:57.079Z,14.40
2022-12-05T09:10:00.074Z,14.03
2022-12-05T09:20:04.778Z,15.03
2022-12-05T09:30:09.373Z,12.37
2022-12-05T09:40:18.749Z,16.20
2022-12-05T09:50:23.825Z,15.57
2022-12-05T10:00:30.427Z,13.63
2022-12-05T10:10:43.163Z,11.80
2022-12-05T10:20:52.577Z,12.17
2022-12-05T10:30:59.889Z,12.33
2022-12-05T10:41:08.282Z,11.33
2022-12-05T10:51:15.880Z,12.90
2022-12-05T11:01:20.690Z,11.10
2022-12-05T11:11:28.422Z,12.40
2022-12-05T11:21:43.661Z,10.20
2022-12-05T11:31:52.990Z,9.90
2022-12-05T11:42:12.125Z,8.87
2022-12-05T11:52:28.427Z,9.10
2022-12-05T12:02:50.657Z,6.90
2022-12-05T12:13:06.538Z,7.07
2022-12-05T12:23:26.883Z,8.33
2022-12-05T12:33:35.322Z,7.73
2022-12-05T12:43:53.994Z,6.63
2022-12-05T12:54:08.058Z,7.20
2022-12-05T13:04:15.719Z,8.13
2022-12-05T13:14:25.227Z,7.93
2022-12-05T13:24:30.023Z,6.97
2022-12-05T13:34:46.967Z,8.37
2022-12-05T13:44:53.477Z,7.83
2022-12-05T13:55:02.045Z,8.50
2022-12-05T14:05:45.794Z,7.53
2022-12-05T14:15:50.328Z,8.30
2022-12-05T14:26:08.904Z,6.83
2022-12-05T14:36:18.464Z,8.27
2022-12-05T14:46:26.830Z,7.73
2022-12-05T14:56:29.994Z,7.90
2022-12-05T15:06:37.998Z,6.90
2022-12-05T15:16:45.591Z,7.47
2022-12-05T15:26:53.202Z,7.23
2022-12-05T15:37:01.129Z,6.13
2022-12-05T15:47:05.711Z,5.50
2022-12-05T15:57:13.694Z,6.23
2022-12-05T16:07:18.221Z,7.97
2022-12-05T16:17:22.296Z,6.97
2022-12-05T16:27:28.278Z,6.17
2022-12-05T16:37:31.871Z,8.63
2022-12-05T16:47:59.829Z,8.90
2022-12-05T16:58:03.631Z,9.00
2022-12-05T17:08:08.129Z,7.73
2022-12-05T17:18:15.160Z,8.47
2022-12-05T17:28:19.647Z,11.47
2022-12-05T17:38:22.867Z,16.17
2022-12-05T17:48:27.410Z,13.17
2022-12-05T17:58:30.491Z,13.07
2022-12-05T18:08:39.529Z,15.70
2022-12-05T18:18:42.599Z,14.50
2022-12-05T18:28:47.507Z,12.30
2022-12-05T18:38:52.182Z,11.43
2022-12-05T18:49:01.749Z,11.53
2022-12-05T18:59:08.027Z,13.60
2022-12-05T19:09:15.398Z,12.40
2022-12-05T19:19:18.967Z,14.80
2022-12-05T19:29:23.331Z,12.30
2022-12-05T19:39:27.203Z,13.10
2022-12-05T19:49:31.821Z,12.93
2022-12-05T19:59:34.904Z,18.03
2022-12-05T20:09:39.356Z,11.60
2022-12-05T20:19:42.421Z,10.33
2022-12-05T20:29:46.907Z,11.43
2022-12-05T20:39:51.088Z,13.47
2022-12-05T20:49:55.459Z,10.33
2022-12-05T20:59:58.871Z,11.43
2022-12-05T21:10:08.008Z,14.53
2022-12-05T21:20:12.166Z,12.53
2022-12-05T21:30:17.334Z,11.87
2022-12-05T21:40:20.842Z,11.30
2022-12-05T21:50:25.252Z,12.83
2022-12-05T22:00:28.294Z,15.20
2022-12-05T22:10:34.229Z,12.63
2022-12-05T22:20:37.238Z,12.13
2022-12-05T22:30:41.637Z,12.37
2022-12-05T22:40:44.720Z,10.67
2022-12-05T22:50:49.838Z,11.87
2022-12-05T23:00:52.834Z,12.50
2022-12-05T23:11:00.009Z,10.73
2022-12-05T23:21:04.192Z,12.20
2022-12-05T23:31:10.655Z,10.57
2022-12-05T23:41:16.149Z,11.07
2022-12-05T23:51:23.213Z,10.73
